Time;durP1;ratioP1;P1;durP2;ratioP2;P2;SDS_P1;SDS_P2;PMS_P1;PMS_P2;Temp;Humidity;BMP_temperature;BMP_pressure;BME280_temperature;BME280_humidity;BME280_pressure;Samples;Min_cycle;Max_cycle;Signal;HPM_P1;HPM_P2
2022/08/20 00:04:23;;;;;;;18.58;16.67;;;27.80;99.90;;;;;;10156861;29;20203;-94
2022/08/20 00:09:26;;;;;;;18.55;16.65;;;27.80;99.90;;;;;;10172506;29;20241;-93
2022/08/20 00:14:31;;;;;;;20.92;16.88;;;27.80;99.90;;;;;;10134822;29;20245;-93
2022/08/20 00:19:35;;;;;;;18.67;16.67;;;27.80;99.90;;;;;;10142766;29;20231;-94
2022/08/20 00:24:37;;;;;;;20.58;17.17;;;27.70;99.90;;;;;;10155076;29;20282;-94
2022/08/20 00:29:40;;;;;;;18.20;16.27;;;27.70;99.90;;;;;;10154668;29;20252;-95
2022/08/20 00:34:43;;;;;;;19.92;17.55;;;27.70;99.90;;;;;;10155405;29;20248;-94
2022/08/20 00:39:45;;;;;;;18.83;16.92;;;27.70;99.90;;;;;;10153318;29;20211;-94
2022/08/20 00:44:49;;;;;;;18.08;16.08;;;27.70;99.90;;;;;;10146122;29;20271;-94
2022/08/20 00:49:51;;;;;;;19.48;16.38;;;27.70;99.90;;;;;;10152962;29;20234;-94
2022/08/20 00:54:57;;;;;;;19.05;17.05;;;27.70;99.90;;;;;;10143948;29;20247;-94
2022/08/20 01:00:03;;;;;;;19.08;17.17;;;27.60;99.90;;;;;;10151574;29;20216;-92
2022/08/20 01:05:08;;;;;;;18.85;16.85;;;27.60;99.90;;;;;;10152168;29;20228;-94
2022/08/20 01:10:18;;;;;;;19.00;17.05;;;27.60;99.90;;;;;;10150934;29;20271;-94
2022/08/20 01:15:23;;;;;;;19.95;16.98;;;27.60;99.90;;;;;;10154400;29;20259;-93
2022/08/20 01:20:56;;;;;;;19.88;17.60;;;27.60;99.90;;;;;;10144800;29;20259;-93
2022/08/20 01:26:25;;;;;;;22.25;18.00;;;27.60;99.90;;;;;;10153718;29;20235;-93
2022/08/20 01:31:31;;;;;;;18.83;16.92;;;27.60;99.90;;;;;;10145193;29;20208;-93
2022/08/20 01:36:38;;;;;;;18.23;16.45;;;27.50;99.90;;;;;;10167902;29;20295;-94
2022/08/20 01:41:55;;;;;;;18.60;16.80;;;27.50;99.90;;;;;;10154831;29;20220;-93
2022/08/20 01:47:12;;;;;;;21.73;18.58;;;27.50;99.90;;;;;;10169301;29;20235;-93
2022/08/20 01:52:30;;;;;;;18.73;16.83;;;27.50;99.90;;;;;;10156424;29;20287;-95
2022/08/20 01:57:34;;;;;;;18.40;16.60;;;27.50;99.90;;;;;;10160562;29;20250;-92
2022/08/20 02:02:37;;;;;;;18.98;16.98;;;27.50;99.90;;;;;;10136444;29;20229;-94
2022/08/20 02:07:39;;;;;;;19.45;17.55;;;27.50;99.90;;;;;;10159894;29;20674;-94
2022/08/20 02:12:43;;;;;;;19.65;17.65;;;27.50;99.90;;;;;;10175232;29;20572;-93
2022/08/20 02:17:47;;;;;;;18.30;16.40;;;27.40;99.90;;;;;;10158307;29;20318;-93
2022/08/20 02:22:57;;;;;;;18.30;16.40;;;27.40;99.90;;;;;;10158163;29;20228;-94
2022/08/20 02:28:03;;;;;;;19.70;17.63;;;27.40;99.90;;;;;;10158102;29;20223;-93
2022/08/20 02:33:08;;;;;;;18.17;16.27;;;27.30;99.90;;;;;;10174913;29;20235;-94
2022/08/20 02:38:11;;;;;;;19.42;17.40;;;27.30;99.90;;;;;;10174417;29;20255;-93
2022/08/20 02:43:17;;;;;;;21.08;17.80;;;27.40;99.90;;;;;;10163991;29;20283;-92
2022/08/20 02:48:21;;;;;;;18.60;16.73;;;27.30;99.90;;;;;;10153303;29;20212;-93
2022/08/20 02:53:26;;;;;;;18.80;16.85;;;27.30;99.90;;;;;;10180189;29;20231;-92
2022/08/20 02:58:28;;;;;;;18.88;16.90;;;27.30;99.90;;;;;;10177965;29;20224;-94
2022/08/20 03:03:31;;;;;;;19.17;16.83;;;27.30;99.90;;;;;;10162329;29;20200;-93
2022/08/20 03:08:35;;;;;;;19.55;17.58;;;27.30;99.90;;;;;;10176347;29;20649;-93
2022/08/20 03:13:38;;;;;;;19.13;17.13;;;27.20;99.90;;;;;;10159709;29;20208;-93
2022/08/20 03:18:44;;;;;;;19.42;17.52;;;27.10;99.90;;;;;;10158091;29;20259;-93
2022/08/20 03:23:46;;;;;;;18.42;16.60;;;27.20;99.90;;;;;;10164699;29;20200;-95
2022/08/20 03:28:49;;;;;;;18.25;16.45;;;27.10;99.90;;;;;;10168935;29;20216;-94
2022/08/20 03:33:51;;;;;;;19.40;17.38;;;27.10;99.90;;;;;;10157504;29;20688;-92
2022/08/20 03:38:57;;;;;;;20.90;17.98;;;27.20;99.90;;;;;;10133964;29;20284;-93
2022/08/20 03:44:00;;;;;;;18.58;16.67;;;27.10;99.90;;;;;;10166060;29;20279;-93
2022/08/20 03:49:03;;;;;;;19.90;17.88;;;27.10;99.90;;;;;;10170673;29;20283;-94
2022/08/20 03:54:05;;;;;;;19.88;17.80;;;27.10;99.90;;;;;;10154924;29;20243;-93
2022/08/20 03:59:08;;;;;;;19.50;17.50;;;27.10;99.90;;;;;;10155859;29;20267;-94
2022/08/20 04:04:11;;;;;;;19.48;17.50;;;27.10;99.90;;;;;;10170294;29;20219;-93
2022/08/20 04:09:14;;;;;;;18.63;16.73;;;27.10;99.90;;;;;;10171671;29;20239;-94
2022/08/20 04:14:16;;;;;;;18.70;16.80;;;27.10;99.90;;;;;;10156813;29;20239;-94
2022/08/20 04:19:22;;;;;;;19.02;17.10;;;27.20;99.90;;;;;;10154582;29;20259;-93
2022/08/20 04:24:26;;;;;;;17.92;16.13;;;27.10;99.90;;;;;;10154509;29;20215;-94
2022/08/20 04:29:35;;;;;;;20.77;18.58;;;27.20;99.90;;;;;;10153007;29;20208;-93
2022/08/20 04:34:39;;;;;;;18.98;17.02;;;27.10;99.90;;;;;;10154344;29;20231;-91
2022/08/20 04:39:42;;;;;;;19.00;17.08;;;27.20;99.90;;;;;;10152416;29;20262;-94
2022/08/20 04:44:44;;;;;;;18.73;16.92;;;27.10;99.90;;;;;;10170158;29;20229;-94
2022/08/20 04:49:46;;;;;;;19.48;17.42;;;27.20;99.90;;;;;;10130866;29;20298;-94
2022/08/20 04:54:49;;;;;;;18.17;16.38;;;27.20;99.90;;;;;;10155026;29;20271;-94
2022/08/20 04:59:52;;;;;;;20.60;18.45;;;27.20;99.90;;;;;;10154856;29;20791;-94
2022/08/20 05:05:01;;;;;;;19.92;17.83;;;27.20;99.90;;;;;;10169972;29;20239;-94
2022/08/20 05:10:05;;;;;;;18.25;16.35;;;27.20;99.90;;;;;;10155039;29;20264;-95
2022/08/20 05:15:10;;;;;;;18.50;16.70;;;27.30;99.90;;;;;;10155163;29;20260;-95
2022/08/20 05:20:16;;;;;;;19.00;17.00;;;27.30;99.90;;;;;;10158795;29;20283;-94
2022/08/20 05:25:20;;;;;;;19.55;17.63;;;27.30;99.90;;;;;;10157756;29;20750;-94
2022/08/20 05:30:23;;;;;;;18.98;16.98;;;27.30;99.90;;;;;;10168979;29;20689;-93
2022/08/20 05:35:37;;;;;;;18.98;17.08;;;27.30;99.90;;;;;;10182868;29;20228;-94
2022/08/20 05:40:41;;;;;;;18.65;16.60;;;27.30;99.90;;;;;;10186313;29;20227;-93
2022/08/20 05:45:51;;;;;;;18.50;16.65;;;27.30;99.90;;;;;;10182526;29;20232;-94
2022/08/20 05:50:58;;;;;;;18.40;16.60;;;27.30;99.90;;;;;;10180829;29;20284;-94
2022/08/20 05:56:01;;;;;;;19.58;17.52;;;27.30;99.90;;;;;;10176224;29;20200;-94
2022/08/20 06:01:04;;;;;;;19.00;17.08;;;27.40;99.90;;;;;;10163346;29;20208;-93
2022/08/20 06:06:08;;;;;;;19.45;17.48;;;27.40;99.90;;;;;;10185046;29;20200;-94
2022/08/20 06:11:20;;;;;;;18.77;16.63;;;27.40;99.90;;;;;;10198347;29;20200;-93
2022/08/20 06:16:25;;;;;;;21.50;19.27;;;27.30;99.90;;;;;;10181125;29;20220;-94
2022/08/20 06:21:31;;;;;;;18.20;16.30;;;27.20;99.90;;;;;;10180609;29;20216;-94
2022/08/20 06:26:35;;;;;;;18.70;16.80;;;27.30;99.90;;;;;;10179496;29;21053;-95
2022/08/20 06:31:39;;;;;;;18.65;16.63;;;27.10;99.90;;;;;;10194160;29;20203;-94
2022/08/20 06:36:45;;;;;;;18.13;16.23;;;27.20;99.90;;;;;;10170084;29;20220;-94
2022/08/20 06:41:48;;;;;;;18.70;16.65;;;27.30;99.90;;;;;;10163057;29;20237;-94
2022/08/20 06:46:53;;;;;;;18.67;16.77;;;27.40;99.90;;;;;;10151587;29;20678;-94
2022/08/20 06:51:56;;;;;;;18.02;16.33;;;27.30;99.90;;;;;;10157478;29;20232;-94
2022/08/20 06:57:01;;;;;;;20.40;18.23;;;27.40;99.90;;;;;;10161573;29;20223;-94
2022/08/20 07:02:04;;;;;;;17.67;15.88;;;27.40;99.90;;;;;;10171407;29;20233;-94
2022/08/20 07:07:16;;;;;;;26.60;22.58;;;27.30;99.90;;;;;;10179738;29;20247;-93
2022/08/20 07:12:18;;;;;;;19.10;17.15;;;27.30;99.90;;;;;;10168517;29;20215;-92
2022/08/20 07:17:21;;;;;;;18.48;16.52;;;27.40;99.90;;;;;;10179523;29;20243;-91
2022/08/20 07:22:26;;;;;;;18.73;16.83;;;27.40;99.90;;;;;;10171163;29;20244;-92
2022/08/20 07:27:28;;;;;;;18.75;16.85;;;27.60;99.90;;;;;;10156799;29;20259;-91
2022/08/20 07:32:35;;;;;;;22.90;17.83;;;27.80;99.90;;;;;;10158818;29;20283;-91
2022/08/20 07:37:43;;;;;;;20.63;18.63;;;27.70;99.90;;;;;;10156416;29;20716;-91
2022/08/20 07:42:47;;;;;;;28.42;24.70;;;27.80;99.90;;;;;;10155963;29;20295;-91
2022/08/20 07:47:52;;;;;;;27.02;22.25;;;27.60;99.90;;;;;;10156001;29;20234;-92
2022/08/20 07:52:55;;;;;;;18.58;16.63;;;27.50;99.90;;;;;;10156545;29;20240;-91
2022/08/20 07:58:05;;;;;;;25.92;23.13;;;27.60;99.90;;;;;;10134520;29;20220;-91
2022/08/20 08:03:08;;;;;;;30.85;23.83;;;27.30;99.90;;;;;;10134498;29;20283;-91
2022/08/20 08:08:13;;;;;;;20.08;17.20;;;27.20;99.90;;;;;;10143167;29;20223;-92
2022/08/20 08:13:16;;;;;;;19.55;17.63;;;27.10;99.90;;;;;;10190710;29;20278;-93
2022/08/20 08:18:24;;;;;;;19.92;17.83;;;27.40;99.90;;;;;;10204229;29;20224;-92
2022/08/20 08:23:33;;;;;;;18.67;16.67;;;27.40;99.90;;;;;;10177847;29;20625;-91
2022/08/20 08:28:36;;;;;;;23.77;21.25;;;27.50;99.90;;;;;;10185611;29;20263;-90
2022/08/20 08:33:39;;;;;;;18.73;16.85;;;27.60;99.90;;;;;;10164452;29;20690;-91
2022/08/20 08:38:44;;;;;;;30.85;27.45;;;27.60;99.90;;;;;;10154091;29;20299;-88
2022/08/20 08:43:51;;;;;;;35.13;27.13;;;26.50;99.90;;;;;;10172817;29;20228;-90
2022/08/20 08:49:00;;;;;;;33.28;27.83;;;26.80;99.90;;;;;;10153625;29;20212;-92
2022/08/20 08:54:04;;;;;;;27.88;24.95;;;27.20;99.90;;;;;;10153011;29;20235;-91
2022/08/20 08:59:09;;;;;;;32.60;25.00;;;27.50;99.90;;;;;;10153050;29;20328;-90
2022/08/20 09:04:17;;;;;;;32.47;26.50;;;27.60;99.90;;;;;;10153351;29;20207;-92
2022/08/20 09:09:30;;;;;;;30.73;26.77;;;27.50;99.90;;;;;;10167934;29;20215;-91
2022/08/20 09:14:33;;;;;;;27.67;24.75;;;27.80;99.90;;;;;;10152705;29;20247;-91
2022/08/20 09:19:35;;;;;;;26.35;23.58;;;27.90;99.90;;;;;;10153368;29;20710;-91
2022/08/20 09:24:38;;;;;;;26.42;23.60;;;27.90;99.90;;;;;;10151831;29;20315;-91
2022/08/20 09:29:41;;;;;;;27.70;24.73;;;28.00;99.90;;;;;;10152340;29;20207;-91
2022/08/20 09:34:54;;;;;;;25.75;23.08;;;28.10;99.90;;;;;;10152728;29;20263;-91
2022/08/20 09:39:57;;;;;;;28.50;24.98;;;28.00;99.90;;;;;;10152187;29;20322;-91
2022/08/20 09:45:00;;;;;;;30.05;23.60;;;27.90;99.90;;;;;;10152357;29;20381;-91
2022/08/20 09:50:04;;;;;;;26.92;24.02;;;28.10;99.90;;;;;;10152052;29;20288;-91
2022/08/20 09:55:18;;;;;;;26.58;23.73;;;28.30;99.90;;;;;;10152065;29;20235;-91
2022/08/20 10:00:21;;;;;;;28.67;24.45;;;28.20;99.90;;;;;;10168068;29;20757;-91
2022/08/20 10:05:24;;;;;;;27.73;24.40;;;28.20;99.90;;;;;;10150325;29;20227;-91
2022/08/20 10:10:27;;;;;;;27.50;23.02;;;28.00;99.90;;;;;;10153793;29;20268;-91
2022/08/20 10:15:30;;;;;;;27.15;24.25;;;28.10;99.90;;;;;;10164711;29;20270;-90
2022/08/20 10:20:34;;;;;;;25.05;22.48;;;27.90;99.90;;;;;;10155972;29;20648;-90
2022/08/20 10:25:37;;;;;;;27.48;23.48;;;27.90;99.90;;;;;;10158549;29;20243;-91
2022/08/20 10:30:39;;;;;;;26.52;23.73;;;27.90;99.90;;;;;;10158428;29;20310;-91
2022/08/20 10:35:42;;;;;;;29.35;23.38;;;27.90;99.90;;;;;;10175364;29;20237;-92
2022/08/20 10:40:45;;;;;;;24.92;22.38;;;27.70;99.90;;;;;;10157957;29;20267;-91
2022/08/20 10:45:54;;;;;;;27.05;24.10;;;28.00;99.90;;;;;;10159092;29;20240;-91
2022/08/20 10:50:56;;;;;;;27.98;22.95;;;28.10;99.90;;;;;;10174880;29;20790;-91
2022/08/20 10:56:02;;;;;;;25.83;22.92;;;28.30;99.90;;;;;;10139735;29;20236;-91
2022/08/20 11:01:04;;;;;;;26.05;23.25;;;28.50;99.90;;;;;;10134281;29;20374;-91
2022/08/20 11:06:07;;;;;;;30.45;24.65;;;28.10;99.90;;;;;;10133296;29;20700;-91
2022/08/20 11:11:10;;;;;;;24.75;22.15;;;28.10;99.90;;;;;;10133533;29;20303;-91
2022/08/20 11:16:13;;;;;;;26.00;23.25;;;28.20;99.90;;;;;;10133225;29;20239;-91
2022/08/20 11:21:17;;;;;;;25.13;22.40;;;28.10;99.90;;;;;;10135188;29;20275;-91
2022/08/20 11:26:23;;;;;;;25.23;22.60;;;28.20;99.90;;;;;;10132593;29;20295;-90
2022/08/20 11:31:26;;;;;;;25.10;22.52;;;28.10;99.90;;;;;;10132108;29;20248;-91
2022/08/20 11:36:28;;;;;;;29.90;23.52;;;28.10;99.90;;;;;;10131882;29;20211;-90
2022/08/20 11:41:31;;;;;;;26.10;21.88;;;28.20;99.90;;;;;;10155198;29;20712;-91
2022/08/20 11:46:33;;;;;;;24.88;22.40;;;28.30;99.90;;;;;;10170296;29;20211;-91
2022/08/20 11:51:36;;;;;;;23.98;21.40;;;28.30;99.90;;;;;;10154396;29;20239;-91
2022/08/20 11:56:51;;;;;;;26.90;22.58;;;28.40;99.90;;;;;;10153944;29;20303;-91
2022/08/20 12:01:54;;;;;;;24.58;21.65;;;28.00;99.90;;;;;;10154841;29;20255;-91
2022/08/20 12:07:09;;;;;;;26.23;23.05;;;28.10;99.90;;;;;;10154295;29;20246;-90
2022/08/20 12:12:12;;;;;;;24.92;22.33;;;28.20;99.90;;;;;;10154600;29;20275;-91
2022/08/20 12:17:22;;;;;;;27.42;22.23;;;28.50;99.90;;;;;;10171283;29;20291;-91
2022/08/20 12:22:25;;;;;;;23.85;21.30;;;28.20;99.90;;;;;;10153672;29;20212;-91
2022/08/20 12:27:31;;;;;;;23.25;20.85;;;28.20;99.90;;;;;;10154115;29;20282;-91
2022/08/20 12:32:34;;;;;;;25.95;22.30;;;28.30;99.90;;;;;;10153440;29;20231;-91
2022/08/20 12:37:38;;;;;;;28.35;23.17;;;28.30;99.90;;;;;;10153420;29;20324;-90
2022/08/20 12:42:44;;;;;;;275.75;43.78;;;28.30;99.90;;;;;;10158225;29;20227;-93
2022/08/20 12:48:07;;;;;;;64.28;26.02;;;28.50;99.90;;;;;;10207175;28;20235;-94
2022/08/20 12:53:14;;;;;;;54.28;26.15;;;28.00;99.90;;;;;;10134028;29;20256;-93
2022/08/20 12:58:17;;;;;;;35.25;25.15;;;28.10;99.90;;;;;;10181383;29;20215;-94
2022/08/20 13:03:22;;;;;;;29.58;24.92;;;27.00;99.90;;;;;;10183070;29;20193;-95
2022/08/20 13:08:26;;;;;;;27.40;23.10;;;27.40;99.90;;;;;;10176601;29;20236;-95
2022/08/20 13:13:29;;;;;;;31.60;24.67;;;27.90;99.90;;;;;;10169700;29;20196;-95
2022/08/20 13:18:32;;;;;;;31.20;24.02;;;28.10;99.90;;;;;;10167717;29;20232;-94
2022/08/20 13:23:35;;;;;;;35.30;23.23;;;27.90;99.90;;;;;;10186046;29;20200;-94
2022/08/20 13:28:38;;;;;;;30.23;22.15;;;27.90;99.90;;;;;;10175417;29;20256;-95
2022/08/20 13:33:41;;;;;;;28.48;24.90;;;28.60;99.90;;;;;;10173451;29;20208;-94
2022/08/20 13:38:44;;;;;;;30.05;24.33;;;27.60;99.90;;;;;;10135113;29;20232;-93
2022/08/20 13:43:48;;;;;;;26.40;22.92;;;27.40;99.90;;;;;;10130749;29;20607;-92
2022/08/20 13:48:51;;;;;;;28.50;21.00;;;28.40;99.90;;;;;;10138571;29;20208;-93
2022/08/20 13:53:53;;;;;;;30.58;21.70;;;28.90;99.90;;;;;;10180951;29;20295;-94
2022/08/20 13:58:56;;;;;;;32.67;20.00;;;29.50;99.90;;;;;;10162116;29;20279;-93
2022/08/20 14:03:58;;;;;;;27.40;20.95;;;28.30;99.90;;;;;;10161279;29;20400;-94
2022/08/20 14:09:02;;;;;;;25.85;20.85;;;29.20;99.90;;;;;;10161459;29;20204;-95
2022/08/20 14:14:04;;;;;;;25.63;22.23;;;28.80;99.90;;;;;;10162222;29;20247;-91
2022/08/20 14:19:07;;;;;;;23.55;20.08;;;28.20;99.90;;;;;;10161592;29;20220;-93
2022/08/20 14:24:09;;;;;;;23.30;19.20;;;28.70;99.90;;;;;;10162946;29;20207;-94
2022/08/20 14:29:12;;;;;;;24.33;21.67;;;28.50;99.90;;;;;;10182875;29;20196;-94
2022/08/20 14:34:14;;;;;;;30.33;22.10;;;28.20;99.90;;;;;;10182150;29;20203;-93
2022/08/20 14:39:17;;;;;;;25.20;20.33;;;28.00;99.90;;;;;;10183263;29;20248;-94
2022/08/20 14:44:22;;;;;;;26.77;21.25;;;28.30;99.90;;;;;;10192285;29;20240;-95
2022/08/20 14:49:25;;;;;;;32.55;20.33;;;28.00;99.90;;;;;;10169961;29;20646;-95
2022/08/20 14:54:28;;;;;;;24.75;21.17;;;27.50;99.90;;;;;;10190235;29;20295;-95
2022/08/20 14:59:32;;;;;;;25.98;22.17;;;27.50;99.90;;;;;;10156753;29;20244;-95
2022/08/20 15:04:35;;;;;;;27.58;22.17;;;27.20;99.90;;;;;;10163040;29;20216;-95
2022/08/20 15:09:38;;;;;;;23.85;21.35;;;27.10;99.90;;;;;;10177285;29;20200;-95
2022/08/20 15:14:41;;;;;;;29.35;22.02;;;27.10;99.90;;;;;;10171811;29;20207;-94
2022/08/20 15:19:43;;;;;;;28.98;21.52;;;27.10;99.90;;;;;;10173878;29;20286;-94
2022/08/20 15:24:46;;;;;;;29.30;22.60;;;27.10;99.90;;;;;;10189399;29;20208;-95
2022/08/20 15:29:50;;;;;;;25.48;21.88;;;26.50;99.90;;;;;;10178045;29;20259;-94
2022/08/20 15:34:53;;;;;;;25.42;20.13;;;26.30;99.90;;;;;;10157027;29;20686;-93
2022/08/20 15:39:56;;;;;;;30.05;19.95;;;26.20;99.90;;;;;;10183983;29;20223;-94
2022/08/20 15:44:58;;;;;;;30.13;21.65;;;26.10;99.90;;;;;;10211295;29;20196;-94
2022/08/20 15:50:10;;;;;;;27.25;19.85;;;25.60;99.90;;;;;;10195310;29;20215;-96
2022/08/20 15:55:17;;;;;;;19.20;9.82;;;25.10;99.90;;;;;;10192360;29;20208;-94
2022/08/20 16:00:24;;;;;;;13.90;7.47;;;24.40;99.90;;;;;;10192033;29;20216;-95
2022/08/20 16:05:44;;;;;;;8.88;7.18;;;23.80;99.90;;;;;;10211883;29;20183;-95
2022/08/20 16:11:36;;;;;;;8.48;5.10;;;23.60;99.90;;;;;;10191350;29;20243;-95
2022/08/20 16:16:44;;;;;;;7.93;5.18;;;23.30;99.90;;;;;;10022670;29;20214;-95
2022/08/20 16:22:01;;;;;;;13.00;6.38;;;23.10;99.90;;;;;;10052566;29;20222;-94
2022/08/20 16:27:14;;;;;;;13.10;8.30;;;;;;;;;;10035323;29;20210;-95
2022/08/20 16:32:40;;;;;;;12.65;7.43;;;22.40;99.90;;;;;;10051518;29;20247;-95
2022/08/20 16:38:09;;;;;;;11.38;9.70;;;22.40;99.90;;;;;;10049281;29;20214;-95
2022/08/20 16:43:31;;;;;;;12.43;10.13;;;;;;;;;;10040642;29;20218;-94
2022/08/20 16:48:39;;;;;;;12.20;8.15;;;21.60;99.90;;;;;;10020208;29;20277;-94
2022/08/20 16:53:42;;;;;;;17.00;8.43;;;21.20;99.90;;;;;;10162140;29;20239;-94
2022/08/20 17:10:29;;;;;;;11.63;9.00;;;25.90;99.90;;;;;;10433192;23;20218;-96
2022/08/20 17:15:34;;;;;;;13.88;9.70;;;25.70;99.90;;;;;;10527227;23;20267;-96
2022/08/20 17:20:43;;;;;;;23.15;9.70;;;25.00;99.90;;;;;;10281662;23;20287;-96
2022/08/20 17:26:03;;;;;;;16.83;9.50;;;23.30;99.90;;;;;;10176057;29;20215;-95
2022/08/20 17:31:07;;;;;;;14.63;8.90;;;23.10;99.90;;;;;;10214097;29;20215;-95
2022/08/20 17:36:19;;;;;;;12.13;8.65;;;20.90;99.90;;;;;;10170132;29;20612;-95
2022/08/20 17:41:26;;;;;;;12.15;8.88;;;20.40;99.90;;;;;;10173980;29;20220;-93
2022/08/20 17:46:38;;;;;;;15.43;9.40;;;21.20;99.90;;;;;;10197790;29;20314;-93
2022/08/20 17:51:48;;;;;;;11.40;7.85;;;21.40;99.90;;;;;;10187479;29;20207;-95
2022/08/20 17:56:56;;;;;;;13.85;8.50;;;20.90;99.90;;;;;;10149119;29;20208;-94
2022/08/20 18:02:00;;;;;;;12.93;8.77;;;20.10;99.90;;;;;;10171308;29;20228;-94
2022/08/20 18:07:09;;;;;;;13.98;9.27;;;20.20;99.90;;;;;;10171041;29;20204;-93
2022/08/20 18:12:28;;;;;;;13.90;9.52;;;20.60;99.90;;;;;;10166939;29;20220;-93
2022/08/20 18:18:16;;;;;;;12.45;9.63;;;21.70;99.90;;;;;;10168957;29;20236;-93
2022/08/20 18:23:34;;;;;;;11.70;6.78;;;22.80;99.90;;;;;;10107702;29;20288;-94
2022/08/20 18:28:44;;;;;;;8.73;7.30;;;24.50;99.90;;;;;;9777451;29;10000051;-96
2022/08/20 18:33:47;;;;;;;14.77;11.38;;;24.20;99.90;;;;;;10106724;29;20212;-95
2022/08/20 18:39:23;;;;;;;16.55;13.07;;;22.70;99.90;;;;;;10117257;29;20226;-95
2022/08/20 18:44:44;;;;;;;19.15;12.70;;;21.40;99.90;;;;;;10125443;29;20205;-94
2022/08/20 18:50:05;;;;;;;15.18;12.38;;;21.20;99.90;;;;;;10126369;29;20189;-96
2022/08/20 18:55:42;;;;;;;15.02;12.00;;;21.20;99.90;;;;;;10126661;29;20213;-94
2022/08/20 19:00:51;;;;;;;15.95;12.27;;;20.60;99.90;;;;;;10201996;29;20235;-95
2022/08/20 19:06:09;;;;;;;11.95;10.63;;;20.40;99.90;;;;;;10207012;29;20240;-95
2022/08/20 19:11:50;;;;;;;14.68;11.70;;;20.70;99.90;;;;;;10183632;29;20215;-94
2022/08/20 19:17:22;;;;;;;15.60;12.10;;;20.90;99.90;;;;;;10190662;29;20200;-94
2022/08/20 19:22:27;;;;;;;11.15;9.35;;;20.50;99.90;;;;;;10171776;29;20235;-94
2022/08/20 19:27:30;;;;;;;12.50;10.55;;;20.90;99.90;;;;;;10174070;29;20207;-95
2022/08/20 19:32:32;;;;;;;11.60;9.70;;;20.70;99.90;;;;;;9850996;29;10000096;-95
2022/08/20 19:37:41;;;;;;;14.20;10.18;;;20.50;99.90;;;;;;10192034;29;20605;-94
2022/08/20 19:42:53;;;;;;;10.95;9.45;;;20.80;99.90;;;;;;10180712;29;20259;-94
2022/08/20 19:48:14;;;;;;;11.88;10.43;;;20.70;99.90;;;;;;10168892;29;20244;-94
2022/08/20 19:53:28;;;;;;;12.90;11.50;;;20.40;99.90;;;;;;10183476;29;20207;-95
2022/08/20 19:58:33;;;;;;;12.57;10.68;;;20.50;99.90;;;;;;10166763;29;20206;-96
2022/08/20 20:03:36;;;;;;;11.20;10.00;;;20.30;99.90;;;;;;10159509;29;20287;-89
2022/08/20 20:08:43;;;;;;;11.90;10.63;;;21.50;99.90;;;;;;10160891;29;20211;-96
2022/08/20 20:13:46;;;;;;;11.73;10.52;;;21.10;99.90;;;;;;10164875;29;20203;-96
2022/08/20 20:18:49;;;;;;;13.25;11.85;;;20.70;99.90;;;;;;10144631;29;20283;-96
2022/08/20 20:24:28;;;;;;;12.18;10.88;;;20.60;99.90;;;;;;10131005;29;20248;-96
2022/08/20 20:29:36;;;;;;;14.43;11.82;;;20.70;99.90;;;;;;10196831;28;20216;-96
2022/08/20 20:34:42;;;;;;;12.35;10.82;;;21.10;99.90;;;;;;10171376;23;20235;-94
2022/08/20 20:40:07;;;;;;;13.27;11.27;;;20.40;99.90;;;;;;10146518;29;20623;-93
2022/08/20 20:45:27;;;;;;;14.55;11.63;;;20.20;99.90;;;;;;10202572;23;20235;-94
2022/08/20 20:50:33;;;;;;;17.70;12.75;;;;;;;;;;9836957;29;10000018;-95
2022/08/20 20:55:37;;;;;;;13.45;11.70;;;20.00;99.90;;;;;;10215727;29;20523;-93
2022/08/20 21:00:39;;;;;;;14.20;12.68;;;20.10;99.90;;;;;;10185299;29;20798;-94
2022/08/20 21:05:42;;;;;;;12.55;11.30;;;20.00;99.90;;;;;;10182819;29;20187;-95
2022/08/20 21:10:45;;;;;;;15.93;12.93;;;20.00;99.90;;;;;;10187795;29;20646;-92
2022/08/20 21:15:48;;;;;;;15.23;12.65;;;19.90;99.90;;;;;;10149686;29;20313;-92
2022/08/20 21:20:51;;;;;;;13.65;12.15;;;19.90;99.90;;;;;;10152201;29;20246;-93
2022/08/20 21:25:54;;;;;;;13.02;11.70;;;19.80;99.90;;;;;;10185329;29;20755;-92
2022/08/20 21:30:59;;;;;;;13.65;11.85;;;19.90;99.90;;;;;;10172354;29;20244;-93
2022/08/20 21:36:02;;;;;;;15.95;12.85;;;19.90;99.90;;;;;;10125952;29;20311;-92
2022/08/20 21:41:04;;;;;;;15.30;12.52;;;19.80;99.90;;;;;;10176215;29;20322;-92
2022/08/20 21:46:09;;;;;;;14.43;11.40;;;19.90;99.90;;;;;;10167102;29;20640;-93
2022/08/20 21:51:14;;;;;;;14.15;11.75;;;19.80;99.90;;;;;;10159166;29;20239;-92
2022/08/20 21:56:17;;;;;;;13.38;11.93;;;19.80;99.90;;;;;;10149092;29;20243;-92
2022/08/20 22:01:19;;;;;;;12.75;11.52;;;19.70;99.90;;;;;;10168865;29;20722;-91
2022/08/20 22:06:22;;;;;;;11.80;10.55;;;19.60;99.90;;;;;;9805858;29;9999851;-91
2022/08/20 22:11:25;;;;;;;15.10;10.80;;;19.70;99.90;;;;;;10162393;29;20282;-92
2022/08/20 22:16:28;;;;;;;11.50;10.30;;;19.70;99.90;;;;;;10156165;29;20775;-91
2022/08/20 22:21:33;;;;;;;12.40;11.13;;;19.70;99.90;;;;;;10176618;29;20646;-91
2022/08/20 22:26:39;;;;;;;11.77;10.40;;;19.70;99.90;;;;;;10158978;29;20611;-91
2022/08/20 22:31:43;;;;;;;13.35;10.80;;;19.60;99.90;;;;;;10168304;29;20234;-92
2022/08/20 22:36:46;;;;;;;12.75;11.45;;;19.80;99.90;;;;;;10213092;29;20211;-90
2022/08/20 22:41:49;;;;;;;12.50;11.20;;;19.70;99.90;;;;;;10175116;29;20223;-91
2022/08/20 22:46:55;;;;;;;12.95;10.95;;;19.60;99.90;;;;;;10171650;29;20302;-91
2022/08/20 22:51:58;;;;;;;12.38;11.05;;;19.70;99.90;;;;;;10189579;29;20216;-91
2022/08/20 22:57:01;;;;;;;13.45;11.48;;;19.70;99.90;;;;;;10172233;29;20215;-91
2022/08/20 23:02:12;;;;;;;15.38;11.90;;;19.70;99.90;;;;;;10170759;29;20248;-92
2022/08/20 23:07:16;;;;;;;13.35;11.95;;;19.70;99.90;;;;;;10162159;29;20207;-91
2022/08/20 23:12:18;;;;;;;14.95;12.70;;;19.80;99.90;;;;;;10198180;29;20267;-93
2022/08/20 23:17:21;;;;;;;16.33;12.07;;;19.90;99.90;;;;;;10207452;29;20207;-91
2022/08/20 23:22:24;;;;;;;14.98;11.93;;;19.80;99.90;;;;;;10189573;29;20235;-91
2022/08/20 23:27:27;;;;;;;13.80;11.98;;;19.90;99.90;;;;;;10170204;29;20721;-91
2022/08/20 23:32:30;;;;;;;16.20;13.52;;;19.90;99.90;;;;;;10169750;29;20266;-91
2022/08/20 23:37:42;;;;;;;16.10;12.48;;;19.50;99.90;;;;;;10178651;29;20198;-90
2022/08/20 23:42:45;;;;;;;18.40;13.85;;;19.50;99.90;;;;;;10160018;29;20259;-91
2022/08/20 23:47:48;;;;;;;19.15;14.05;;;19.10;99.90;;;;;;10181448;29;20231;-91
2022/08/20 23:52:53;;;;;;;16.42;13.65;;;19.10;99.90;;;;;;10211916;29;20242;-91
2022/08/20 23:57:55;;;;;;;18.95;12.52;;;19.00;99.90;;;;;;10176326;29;20212;-91
